Time;durP1;ratioP1;P1;durP2;ratioP2;P2;SDS_P1;SDS_P2;PMS_P1;PMS_P2;Temp;Humidity;BMP_temperature;BMP_pressure;BME280_temperature;BME280_humidity;BME280_pressure;Samples;Min_cycle;Max_cycle;Signal;HPM_P1;HPM_P2
2022/06/12 00:02:54;;;;;;;18.50;12.90;;;;;;;14.46;67.90;99158.98;433853;1267;99340;-42
2022/06/12 00:13:03;;;;;;;19.30;15.00;;;;;;;14.52;68.19;99156.21;433377;1267;112515;-40
2022/06/12 00:23:07;;;;;;;19.10;14.00;;;;;;;14.43;68.50;99155.89;433742;1267;108814;-40
2022/06/12 00:33:15;;;;;;;16.90;11.70;;;;;;;14.17;68.16;99151.83;433863;1267;98022;-43
2022/06/12 00:43:26;;;;;;;17.50;11.70;;;;;;;13.90;68.69;99149.27;433810;1266;108662;-42
2022/06/12 00:53:39;;;;;;;18.80;11.60;;;;;;;13.96;68.99;99147.23;433713;1267;98396;-41
2022/06/12 01:14:13;;;;;;;23.40;14.70;;;;;;;13.81;69.47;99133.81;433364;1270;108860;-40
2022/06/12 01:24:27;;;;;;;17.40;12.80;;;;;;;13.80;69.48;99132.58;434518;1258;99240;-41
2022/06/12 01:34:36;;;;;;;19.70;12.10;;;;;;;13.69;69.59;99130.02;433436;1267;108776;-42
2022/06/12 01:44:41;;;;;;;;;;;;;;;13.74;69.97;99125.55;433707;1267;99276;-42
2022/06/12 01:54:46;;;;;;;18.90;13.90;;;;;;;13.58;69.89;99126.62;433433;1268;112479;-40
2022/06/12 02:04:51;;;;;;;17.40;13.90;;;;;;;13.36;70.15;99121.99;433665;1267;107537;-40
2022/06/12 02:15:05;;;;;;;17.30;12.40;;;;;;;13.16;70.29;99116.63;433546;1267;98401;-40
2022/06/12 02:25:14;;;;;;;21.90;14.60;;;;;;;13.11;70.61;99117.42;433570;1267;108959;-40
2022/06/12 02:35:19;;;;;;;24.60;17.80;;;;;;;13.18;70.99;99117.64;433540;1267;98843;-43
2022/06/12 02:55:33;;;;;;;32.90;18.10;;;;;;;13.21;71.34;99127.31;433643;1267;108821;-40
2022/06/12 03:05:41;;;;;;;29.90;17.20;;;;;;;13.32;71.54;99124.52;433560;1267;99732;-41
2022/06/12 03:15:52;;;;;;;19.40;16.80;;;;;;;13.70;71.35;99122.30;433502;1268;108824;-42
2022/06/12 03:26:00;;;;;;;19.30;15.70;;;;;;;15.78;70.19;99125.08;433504;1267;99971;-42
2022/06/12 03:36:12;;;;;;;22.60;15.40;;;;;;;17.81;68.62;99122.30;433618;1267;112851;-41
2022/06/12 03:46:18;;;;;;;21.80;14.40;;;;;;;19.40;66.90;99118.92;433759;1267;108795;-41
2022/06/12 04:06:54;;;;;;;14.80;12.10;;;;;;;20.83;63.61;99126.05;433394;1269;108906;-41
2022/06/12 04:17:02;;;;;;;12.70;10.80;;;;;;;21.13;62.13;99121.05;433580;1267;99252;-45
2022/06/12 04:27:16;;;;;;;12.40;8.50;;;;;;;22.17;61.63;99122.40;433666;1267;112457;-41
2022/06/12 04:37:26;;;;;;;11.50;7.70;;;;;;;23.16;60.27;99119.52;433563;1267;108703;-41
2022/06/12 04:47:34;;;;;;;9.10;6.60;;;;;;;23.81;58.95;99135.08;433733;1268;98824;-41
2022/06/12 04:57:42;;;;;;;10.70;6.70;;;;;;;24.57;57.87;99133.27;433631;1267;109636;-46
2022/06/12 05:07:49;;;;;;;6.00;5.30;;;;;;;24.98;56.20;99127.52;433824;1267;98021;-42
2022/06/12 05:17:56;;;;;;;9.60;5.80;;;;;;;25.48;55.94;99136.77;433726;1267;112963;-43
2022/06/12 05:28:05;;;;;;;6.80;5.10;;;;;;;25.54;54.06;99140.83;433799;1267;108863;-43
2022/06/12 05:38:12;;;;;;;6.10;4.90;;;;;;;25.56;53.55;99140.72;433723;1268;99337;-42
2022/06/12 05:48:21;;;;;;;6.00;4.50;;;;;;;25.93;53.32;99149.05;434012;1267;109061;-47
2022/06/12 05:58:30;;;;;;;7.10;4.50;;;;;;;25.13;52.31;99154.65;433659;1268;99282;-42
2022/06/12 06:08:38;;;;;;;12.70;5.70;;;;;;;24.94;52.44;99153.91;433780;1268;111421;-43
2022/06/12 06:18:46;;;;;;;5.60;4.60;;;;;;;25.91;51.59;99159.40;433683;1268;108671;-42
2022/06/12 06:28:56;;;;;;;8.80;4.30;;;;;;;27.01;51.62;99153.11;433621;1267;99151;-44
2022/06/12 06:39:02;;;;;;;6.10;3.40;;;;;;;28.25;50.72;99152.98;433865;1267;107655;-44
2022/06/12 06:49:09;;;;;;;5.10;3.20;;;;;;;28.41;48.49;99147.25;433916;1268;99298;-42
2022/06/12 06:59:16;;;;;;;6.60;3.80;;;;;;;27.62;47.70;99141.69;433619;1268;112402;-43
2022/06/12 07:09:24;;;;;;;7.30;3.70;;;;;;;27.59;46.58;99141.20;433772;1268;108814;-43
2022/06/12 07:19:32;;;;;;;6.90;3.50;;;;;;;28.08;46.66;99141.11;433721;1268;98824;-42
2022/06/12 07:29:40;;;;;;;4.00;2.70;;;;;;;28.16;46.37;99143.46;433734;1268;108977;-43
2022/06/12 07:39:47;;;;;;;5.40;2.90;;;;;;;28.36;45.86;99134.34;433517;1267;99164;-43
2022/06/12 07:49:54;;;;;;;5.00;3.30;;;;;;;28.26;45.05;99130.94;433847;1267;112298;-45
2022/06/12 08:00:02;;;;;;;3.00;2.10;;;;;;;28.02;44.82;99128.89;433655;1268;108770;-42
2022/06/12 08:10:11;;;;;;;3.80;2.40;;;;;;;28.27;43.86;99128.05;433691;1267;99259;-41
2022/06/12 08:30:32;;;;;;;4.60;1.50;;;;;;;29.29;43.10;99118.33;433647;1268;99285;-44
2022/06/12 08:40:38;;;;;;;4.30;1.80;;;;;;;29.25;42.23;99115.81;433957;1268;112448;-42
2022/06/12 08:50:47;;;;;;;4.30;2.30;;;;;;;28.25;41.93;99119.04;433380;1270;108750;-43
2022/06/12 09:00:55;;;;;;;3.60;2.30;;;;;;;27.82;42.38;99115.90;433932;1268;98745;-42
2022/06/12 09:11:02;;;;;;;3.70;2.30;;;;;;;27.84;42.40;99108.45;433655;1268;108798;-42
2022/06/12 09:21:12;;;;;;;3.70;2.10;;;;;;;28.02;42.24;99098.30;433927;1268;99241;-43
2022/06/12 09:31:20;;;;;;;3.70;2.40;;;;;;;28.21;42.01;99088.66;433486;1268;434040;-43
2022/06/12 09:41:25;;;;;;;5.30;2.30;;;;;;;27.62;41.65;99074.70;433994;1268;108779;-42
2022/06/12 09:51:37;;;;;;;3.10;2.10;;;;;;;27.71;41.88;99065.10;433691;1268;98857;-41
2022/06/12 10:01:46;;;;;;;2.80;2.10;;;;;;;27.25;41.46;99051.61;433821;1268;108771;-41
2022/06/12 10:11:51;;;;;;;3.50;2.30;;;;;;;26.86;41.55;99042.94;433906;1268;99052;-42
2022/06/12 10:21:59;;;;;;;3.80;2.40;;;;;;;26.81;42.57;99037.10;433910;1268;112081;-41
2022/06/12 10:32:06;;;;;;;5.00;2.40;;;;;;;26.75;42.69;99036.09;433713;1268;107769;-42
2022/06/12 10:42:29;;;;;;;6.00;2.70;;;;;;;26.67;42.34;99032.11;433871;1268;99350;-42
2022/06/12 10:52:36;;;;;;;4.00;2.10;;;;;;;26.74;42.37;99024.42;433786;1268;108997;-46
2022/06/12 11:02:56;;;;;;;6.70;2.60;;;;;;;27.07;42.22;99017.97;433694;1268;99256;-44
2022/06/12 11:13:09;;;;;;;4.40;2.20;;;;;;;27.19;42.44;99012.95;433856;1268;112499;-41
2022/06/12 11:23:18;;;;;;;4.00;2.40;;;;;;;27.05;42.39;99004.15;433985;1268;108813;-42
2022/06/12 11:33:51;;;;;;;6.20;3.00;;;;;;;26.81;43.42;99001.83;433783;1268;98416;-41
2022/06/12 11:43:57;;;;;;;4.10;2.50;;;;;;;26.69;43.52;98990.26;434022;1268;108904;-40
2022/06/12 11:54:14;;;;;;;3.10;2.50;;;;;;;26.86;43.83;98982.58;434044;1268;98847;-41
2022/06/12 12:04:45;;;;;;;3.90;2.70;;;;;;;26.87;42.63;98970.75;433882;1267;112950;-43
2022/06/12 12:14:55;;;;;;;4.80;2.30;;;;;;;27.06;42.23;98961.11;433673;1268;108900;-42
2022/06/12 12:25:00;;;;;;;2.40;2.00;;;;;;;26.94;41.57;98948.75;433796;1267;99337;-42
2022/06/12 12:41:11;;;;;;;3.90;2.10;;;;;;;27.43;42.06;98942.67;433763;1268;108891;-43
2022/06/12 12:45:37;;;;;;;3.70;2.60;;;;;;;27.85;41.85;98937.59;433664;1267;99273;-44
2022/06/12 12:55:58;;;;;;;3.90;1.90;;;;;;;27.86;41.54;98934.84;434186;1268;111838;-41
2022/06/12 13:06:22;;;;;;;3.20;2.30;;;;;;;27.83;41.21;98933.65;433723;1268;108908;-46
2022/06/12 13:16:30;;;;;;;3.80;1.90;;;;;;;27.52;41.08;98927.13;433968;1268;99333;-41
2022/06/12 13:26:33;;;;;;;;;;;;;;;27.52;40.91;98915.15;433923;1268;107537;-43
2022/06/12 13:36:43;;;;;;;2.20;2.00;;;;;;;27.43;40.46;98905.36;434060;1268;99254;-43
2022/06/12 13:57:06;;;;;;;2.50;2.20;;;;;;;27.41;39.73;98880.08;434019;1268;108897;-41
2022/06/12 14:07:13;;;;;;;2.80;1.80;;;;;;;27.62;40.18;98869.66;433950;1268;99314;-41
2022/06/12 14:17:18;;;;;;;9.00;2.70;;;;;;;27.57;39.81;98862.55;433820;1268;108823;-45
2022/06/12 14:47:53;;;;;;;2.90;2.20;;;;;;;27.27;39.99;98855.86;433757;1267;108972;-41
2022/06/12 14:58:01;;;;;;;4.20;2.60;;;;;;;27.35;40.15;98844.71;433928;1268;99296;-41
2022/06/12 15:38:46;;;;;;;2.80;2.40;;;;;;;27.24;39.74;98792.47;433034;1269;108561;-43
2022/06/12 15:59:01;;;;;;;5.60;3.20;;;;;;;26.65;40.07;98784.50;433935;1267;107818;-41
2022/06/12 16:09:09;;;;;;;2.80;2.40;;;;;;;26.48;40.79;98775.89;433636;1268;99888;-41
2022/06/12 16:19:18;;;;;;;2.70;2.30;;;;;;;26.35;40.79;98765.78;433816;1268;112465;-41
2022/06/12 16:29:24;;;;;;;3.90;2.10;;;;;;;26.20;41.19;98756.16;433730;1267;108828;-42
2022/06/12 16:39:31;;;;;;;2.20;2.10;;;;;;;26.11;41.29;98745.80;433659;1267;97994;-42
2022/06/12 16:49:39;;;;;;;2.50;2.30;;;;;;;25.91;41.28;98740.16;433731;1267;108893;-42
2022/06/12 17:09:55;;;;;;;5.30;2.90;;;;;;;25.66;41.42;98717.15;433896;1267;112386;-40
2022/06/12 17:30:26;;;;;;;5.80;3.70;;;;;;;25.23;42.24;98733.77;433553;1269;99285;-41
2022/06/12 17:50:41;;;;;;;5.40;3.70;;;;;;;25.05;42.94;98722.88;433638;1268;98952;-42
2022/06/12 18:00:48;;;;;;;7.20;3.80;;;;;;;24.66;43.20;98716.33;433831;1267;110416;-43
2022/06/12 18:10:55;;;;;;;10.20;5.10;;;;;;;24.20;44.30;98707.99;433747;1267;109042;-41
2022/06/12 18:21:03;;;;;;;6.20;4.00;;;;;;;23.79;45.43;98705.70;433910;1267;98026;-42
2022/06/12 18:41:16;;;;;;;14.60;5.10;;;;;;;22.99;47.72;98705.25;433694;1268;99940;-44
2022/06/12 18:51:24;;;;;;;13.10;6.00;;;;;;;22.49;48.53;98714.86;433627;1267;112395;-41
2022/06/12 19:01:30;;;;;;;11.10;7.30;;;;;;;22.03;49.45;98719.70;433582;1265;108809;-41
2022/06/12 19:11:37;;;;;;;12.30;8.50;;;;;;;21.47;50.47;98722.34;433821;1267;99245;-44
2022/06/12 19:21:45;;;;;;;12.30;8.60;;;;;;;21.07;51.42;98728.20;433912;1267;107167;-42
2022/06/12 19:31:52;;;;;;;10.10;8.00;;;;;;;20.74;52.40;98727.40;433586;1267;99278;-41
2022/06/12 19:42:06;;;;;;;14.50;8.70;;;;;;;20.51;53.29;98733.15;433682;1267;111112;-44
2022/06/12 19:52:16;;;;;;;17.40;12.60;;;;;;;20.25;53.92;98725.02;433838;1267;108684;-42
2022/06/12 20:02:23;;;;;;;22.00;13.80;;;;;;;19.98;54.88;98710.68;433830;1267;99138;-43
2022/06/12 20:22:39;;;;;;;17.90;11.10;;;;;;;19.74;56.08;98707.28;433603;1267;99244;-41
2022/06/12 20:32:46;;;;;;;14.40;11.20;;;;;;;19.65;56.84;98707.81;433710;1265;112494;-44
2022/06/12 20:42:52;;;;;;;13.30;11.60;;;;;;;19.60;57.38;98710.71;433528;1267;108425;-41
2022/06/12 20:52:59;;;;;;;18.00;13.00;;;;;;;19.51;57.39;98709.25;433849;1267;99352;-41
2022/06/12 21:03:07;;;;;;;21.00;14.00;;;;;;;19.27;57.95;98712.66;433702;1267;108898;-41
2022/06/12 21:13:13;;;;;;;17.90;11.60;;;;;;;19.10;58.39;98709.83;433836;1267;99942;-43
2022/06/12 21:23:21;;;;;;;17.60;12.20;;;;;;;18.99;58.81;98704.91;433752;1267;112358;-41
2022/06/12 21:33:28;;;;;;;13.80;10.60;;;;;;;18.95;59.32;98703.11;433359;1267;108516;-44
2022/06/12 21:43:36;;;;;;;13.40;10.90;;;;;;;18.80;59.17;98701.16;433683;1267;99155;-39
2022/06/12 22:04:08;;;;;;;16.10;10.90;;;;;;;18.53;59.85;98687.48;433588;1268;99244;-42
2022/06/12 22:14:16;;;;;;;16.20;12.00;;;;;;;18.53;60.20;98691.23;433719;1267;112463;-43
2022/06/12 22:24:24;;;;;;;17.40;13.30;;;;;;;18.51;60.48;98682.79;433666;1266;109069;-41
2022/06/12 22:34:31;;;;;;;15.50;11.90;;;;;;;18.24;60.61;98669.75;433675;1268;98866;-41
2022/06/12 22:44:45;;;;;;;18.90;13.70;;;;;;;18.01;60.61;98659.78;433540;1267;108894;-44
2022/06/12 22:54:52;;;;;;;16.70;11.80;;;;;;;17.85;61.24;98655.23;433537;1267;98857;-41
2022/06/12 23:05:00;;;;;;;19.70;12.60;;;;;;;17.81;61.64;98655.63;433646;1267;112486;-41
2022/06/12 23:15:11;;;;;;;15.10;13.30;;;;;;;17.65;62.03;98644.23;433442;1268;108788;-44
2022/06/12 23:25:18;;;;;;;19.40;11.70;;;;;;;17.56;62.30;98634.34;433687;1267;98850;-44
2022/06/12 23:35:24;;;;;;;13.30;11.90;;;;;;;17.51;62.62;98616.48;433603;1267;108292;-41
2022/06/12 23:45:32;;;;;;;17.20;12.90;;;;;;;17.40;63.05;98605.05;433582;1267;99359;-41
2022/06/12 23:55:40;;;;;;;18.00;14.50;;;;;;;17.34;63.65;98599.20;433758;1267;112528;-42
